Fish Lake Valley, Nevada Weather observations

Data are for 10 minute period ending at time listed.
 Day   Time    Ave.   Ave.  Ave.  Vector   Max.   Stn.    Total    Solar   Ave.  
  of    of     Air    Rel.  Wind   Wind    Wind   Baro.  Precip.   Rad.    Soil  
Year   Day     Temp.  Hum.  Speed  Dir.    Gust   Pres.                    Temp. 
2014   (PST)    F      %     mph   deg.    mph     mb.     in.     W/m2     F    
--------------------------------------------------------------------------------- 
 244   16:00   85.6    31    5.1   144      9.8   850.0    0.00     571    75.4  
 244   17:00   83.4    35    4.9   147      7.2   849.0    0.00     358    76.6  
 244   18:00   75.3    46    4.7   135      6.4   849.0    0.00     126    77.8  
 244   19:00   67.4    50    5.1   138      6.6   850.0    0.00       3    78.8  
 244   20:00   64.2    44    6.7   161      8.9   850.0    0.00       0    79.4  
 244   21:00   63.0    39    7.1   166      8.3   851.0    0.00       0    79.7  
 244   22:00   59.6    43    6.6   169      8.2   851.0    0.00       0    79.6  
 244   23:00   59.9    40    6.1   176      8.3   851.0    0.00       0    79.2  
 245    0:00   59.1    44    2.9   101      5.5   851.0    0.00       0    78.7  
 245    1:00   56.6    48    2.5   156      5.6   851.0    0.00       0    78.1  
 245    2:00   53.8    50    2.4   203      6.1   851.0    0.00       0    77.5  
 245    3:00   51.5    53    3.2   184      5.4   852.0    0.00       0    76.7  
 245    4:00   47.1    71    3.6   130      6.5   852.0    0.00       0    76.0  
 245    5:00   46.5    67    3.4   126      5.7   852.0    0.00       0    75.3  
 245    6:00   44.9    76    3.5   128      4.9   853.0    0.00      22    74.6  
 245    7:00   52.8    71    3.7   114      5.2   853.0    0.00     215    73.9  
 245    8:00   65.4    54    3.3   109      5.2   852.0    0.00     432    73.2  
 245    9:00   77.4    29    1.9   106      4.7   852.0    0.00     637    72.6  
 245   10:00   78.2    31   10.5   118     20.1   851.0    0.00     807    72.1  
 245   11:00   79.3    29   14.5   122     21.0   851.0    0.00     923    71.8  
 245   12:00   81.3    27   14.9   125     22.3   850.0    0.00     978    71.9  
 245   13:00   82.7    26   14.8   123     23.1   849.0    0.00     965    72.2  
 245   14:00   84.5    24   14.2   136     22.7   849.0    0.00     889    72.9  
 245   15:00   84.2    26   12.5   128     20.6   848.0    0.00     752    73.8  

Return to Fish Lake Valley, Nevada graphs page.


Western Regional Climate Center,wrcc@dri.edu